メインページ
METAR-TAF:

METAR-TAF

空港 :

Port Hardy, ブリティッシュコロンビア州, カナダ

緯度: 50-41N, 経度: 127-22W, 海抜: 22m

現時点の気象観測

当レポートは58分前の02:00(UTC)に作成
北西の風 13kt、最大22ktの突風を伴う
気温 14°C
湿度 44%
気圧 1017 hPa
視程: 32.2km
高度5000ftの雲はほとんどない
高度6000ftの千切れ雲あり
高度9000ftの千切れ雲あり

METAR: CYZT 240200Z 31013G22KT 20SM FEW050 BKN060 BKN090 14/02 A3004 RMK SC1SC4AC2 SLP173

時間: 19:58 (02:58 UTC)

予報

当レポートは2時間20分前の00:38(UTC)に作成
予報は24日の 01時(UTC)から 24日の 13時(UTC)まで有効
北/北西の風 12kt
視程: 10km
高度12000ftの雲は散在している
高度22000ftの千切れ雲あり
24日の 01時(UTC)から 24日の 09時(UTC)まで一時的に
高度12000ftの千切れ雲あり
24日の 0900時(UTC)から
西の風 12kt
視程: 10km
高度1200ftの雲は散在している
高度3000ftの千切れ雲あり
24日の 09時(UTC)から 24日の 13時(UTC)まで一時的に
視程: 10km
高度1200ftの千切れ雲あり
小雨

TAF: CYZT 240038Z 2401/2413 33012KT P6SM SCT120 BKN220 TEMPO 2401/2409 BKN120 FM240900 27012KT P6SM SCT012 BKN030 TEMPO 2409/2413 P6SM -RA BKN012 RMK NXT FCST BY 240700Z

4,000以上の空港の気象観測と天気予報(METAR報とTAF報)

利用可能な観測所は地図上に黄色い丸と赤い丸で示す。

丸の上にカーソルを重ねると観測所名を参照できる。

次にクリックすると気象観測と天気予報を参照できる。

マップの切り替え:黒色「×」印の緑ボタンをクリックして拡大、「-」印の緑ボタンをクリックして縮小、緑色の三角印をクリックして隣りの地図に切り替え


METAR-TAF: